Terminal Aerodrome Forecast
Issued by NWS

Home | Current Version | Previous Version | Text Only | Print | Product List | Glossary On
Versions: 1 2 3 4 5 6 7 8 9 10 11 12 13 14 15 16 17 18 19 20 21 22 23
000
FTUS46 KSEW 180900 AAA
TAFSEA
TAF AMD
KSEA 180903Z 1809/1912 00000KT P6SM -SHRA BKN070 OVC100
     FM181200 21006KT P6SM -SHRA BKN015 OVC060
     FM181500 22006KT P6SM OVC015
     FM182000 22006KT P6SM BKN025 OVC050
     FM182300 22006KT P6SM SCT030 OVC060=

USA.gov is the U.S. government's official web portal to all federal, state and local government web resources and services.